createdAt,value
2022-10-09T00:01:24.619Z,83.90
2022-10-09T00:03:54.376Z,83.40
2022-10-09T00:06:26.764Z,81.90
2022-10-09T00:08:54.380Z,83.00
2022-10-09T00:11:24.467Z,84.40
2022-10-09T00:13:53.859Z,82.40
2022-10-09T00:16:22.803Z,82.40
2022-10-09T00:18:51.141Z,82.40
2022-10-09T00:21:27.670Z,82.30
2022-10-09T00:23:57.555Z,84.20
2022-10-09T00:26:26.015Z,83.30
2022-10-09T00:28:54.473Z,82.40
2022-10-09T00:31:22.350Z,82.60
2022-10-09T00:33:49.822Z,83.20
2022-10-09T00:36:20.766Z,83.70
2022-10-09T00:38:48.912Z,84.40
2022-10-09T00:41:21.484Z,83.50
2022-10-09T00:43:54.753Z,83.60
2022-10-09T00:46:47.909Z,85.40
2022-10-09T00:49:30.117Z,84.80
2022-10-09T00:52:00.618Z,83.40
2022-10-09T00:54:32.031Z,84.50
2022-10-09T00:56:59.924Z,83.90
2022-10-09T00:59:27.869Z,84.90
2022-10-09T01:01:55.726Z,84.80
2022-10-09T01:04:23.292Z,83.20
2022-10-09T01:07:18.714Z,82.40
2022-10-09T01:09:49.098Z,83.80
2022-10-09T01:12:36.052Z,84.50
2022-10-09T01:15:16.754Z,83.80
2022-10-09T01:17:55.952Z,83.70
2022-10-09T01:20:41.517Z,84.00
2022-10-09T01:23:28.637Z,84.10
2022-10-09T01:26:09.153Z,85.30
2022-10-09T01:28:39.248Z,85.10
2022-10-09T01:31:07.983Z,83.10
2022-10-09T01:33:35.830Z,84.00
2022-10-09T01:36:05.503Z,87.30
2022-10-09T01:38:38.250Z,87.40
2022-10-09T01:41:07.369Z,83.00
2022-10-09T01:43:35.249Z,84.20
2022-10-09T01:46:22.917Z,83.40
2022-10-09T01:49:02.997Z,85.70
2022-10-09T01:51:39.448Z,85.10
2022-10-09T01:54:09.969Z,85.10
2022-10-09T01:56:39.499Z,83.80
2022-10-09T01:59:16.243Z,85.00
2022-10-09T02:01:46.104Z,84.90
2022-10-09T02:04:16.607Z,83.80
2022-10-09T02:06:45.922Z,85.60
2022-10-09T02:09:16.775Z,84.60
2022-10-09T02:11:48.424Z,84.70
2022-10-09T02:14:15.932Z,85.10
2022-10-09T02:16:47.282Z,83.60
2022-10-09T02:19:28.485Z,85.80
2022-10-09T02:22:13.032Z,83.40
2022-10-09T02:24:41.307Z,86.50
2022-10-09T02:27:11.024Z,84.40
2022-10-09T02:29:41.540Z,85.10
2022-10-09T02:32:09.647Z,85.10
2022-10-09T02:34:37.372Z,83.60
2022-10-09T02:37:05.049Z,85.10
2022-10-09T02:39:35.415Z,86.10
2022-10-09T02:42:04.251Z,87.10
2022-10-09T02:44:31.702Z,85.30
2022-10-09T02:47:02.162Z,85.60
2022-10-09T02:49:29.767Z,86.80
2022-10-09T02:51:57.115Z,89.40
2022-10-09T02:54:24.554Z,86.40
2022-10-09T02:56:51.867Z,88.20
2022-10-09T02:59:19.183Z,85.20
2022-10-09T03:01:46.673Z,86.30
2022-10-09T03:04:14.208Z,84.60
2022-10-09T03:06:41.518Z,84.40
2022-10-09T03:09:08.961Z,84.80
2022-10-09T03:11:36.303Z,85.20
2022-10-09T03:14:03.691Z,84.70
2022-10-09T03:16:31.125Z,84.50
2022-10-09T03:18:58.660Z,85.80
2022-10-09T03:21:27.729Z,85.40
2022-10-09T03:23:55.539Z,85.50
2022-10-09T03:26:26.192Z,85.70
2022-10-09T03:28:55.322Z,86.40
2022-10-09T03:31:51.988Z,85.40
2022-10-09T03:34:12.834Z,86.50
2022-10-09T03:36:40.203Z,85.00
2022-10-09T03:39:07.858Z,85.50
2022-10-09T03:41:35.214Z,85.60
2022-10-09T03:44:02.701Z,84.80
2022-10-09T03:46:30.072Z,85.00
2022-10-09T03:48:57.389Z,85.80
2022-10-09T03:51:24.775Z,85.10
2022-10-09T03:53:52.096Z,85.60
2022-10-09T03:56:19.538Z,87.40
2022-10-09T03:58:47.062Z,90.20
2022-10-09T04:01:14.701Z,88.50
2022-10-09T04:03:42.074Z,87.10
2022-10-09T04:06:09.582Z,88.00
2022-10-09T04:08:37.088Z,88.80
2022-10-09T04:11:04.620Z,90.00
2022-10-09T04:13:31.900Z,86.00
2022-10-09T04:15:59.351Z,85.40
2022-10-09T04:18:26.687Z,85.50
2022-10-09T04:20:56.438Z,85.80
2022-10-09T04:23:26.380Z,86.50
2022-10-09T04:25:59.510Z,86.60
2022-10-09T04:28:28.645Z,87.70
2022-10-09T04:30:57.473Z,86.40
2022-10-09T04:33:26.132Z,85.60
2022-10-09T04:35:54.901Z,86.00
2022-10-09T04:38:23.528Z,86.10
2022-10-09T04:41:05.862Z,86.00
2022-10-09T04:43:34.548Z,88.00
2022-10-09T04:46:11.513Z,87.40
2022-10-09T04:48:44.608Z,88.50
2022-10-09T04:51:12.513Z,87.80
2022-10-09T04:53:40.627Z,86.80
2022-10-09T04:56:11.465Z,87.40
2022-10-09T04:58:41.640Z,87.30
2022-10-09T05:01:23.755Z,86.90
2022-10-09T05:03:52.126Z,88.60
2022-10-09T05:06:21.481Z,87.80
2022-10-09T05:08:49.220Z,86.70
2022-10-09T05:11:22.306Z,86.60
2022-10-09T05:13:55.605Z,87.60
2022-10-09T05:16:25.586Z,89.60
2022-10-09T05:18:55.774Z,87.90
2022-10-09T05:21:24.508Z,89.50
2022-10-09T05:23:54.039Z,87.50
2022-10-09T05:26:23.359Z,88.70
2022-10-09T05:28:53.461Z,87.70
2022-10-09T05:31:28.730Z,90.50
2022-10-09T05:33:59.104Z,89.60
2022-10-09T05:36:26.695Z,86.20
2022-10-09T05:38:54.245Z,87.90
2022-10-09T05:41:21.833Z,90.20
2022-10-09T05:43:50.279Z,90.10
2022-10-09T05:46:19.384Z,90.60
2022-10-09T05:48:58.003Z,91.30
2022-10-09T05:51:31.305Z,90.10
2022-10-09T05:54:02.387Z,90.50
2022-10-09T05:56:32.805Z,88.40
2022-10-09T05:59:06.000Z,89.20
2022-10-09T06:01:39.546Z,88.60
2022-10-09T06:04:11.506Z,90.00
2022-10-09T06:06:40.218Z,88.50
2022-10-09T06:09:09.969Z,88.00
2022-10-09T06:11:39.769Z,88.20
2022-10-09T06:14:09.308Z,88.20
2022-10-09T06:16:42.668Z,88.20
2022-10-09T06:19:15.762Z,89.60
2022-10-09T06:21:43.923Z,90.00
2022-10-09T06:24:28.257Z,88.40
2022-10-09T06:26:57.608Z,89.50
2022-10-09T06:29:25.370Z,86.70
2022-10-09T06:31:55.455Z,87.90
2022-10-09T06:34:23.269Z,89.60
2022-10-09T06:36:50.777Z,88.70
2022-10-09T06:39:18.328Z,87.60
2022-10-09T06:41:45.777Z,89.00
2022-10-09T06:44:39.910Z,91.60
2022-10-09T06:47:07.400Z,88.80
2022-10-09T06:49:34.805Z,91.80
2022-10-09T06:52:02.322Z,88.90
2022-10-09T06:54:29.942Z,91.70
2022-10-09T06:56:57.401Z,91.60
2022-10-09T06:59:24.894Z,90.10
2022-10-09T07:01:52.549Z,90.30
2022-10-09T07:04:22.252Z,90.30
2022-10-09T07:06:49.859Z,91.70
2022-10-09T07:09:17.326Z,91.20
2022-10-09T07:11:49.308Z,90.50
2022-10-09T07:14:17.599Z,90.10
2022-10-09T07:16:47.268Z,88.10
2022-10-09T07:19:16.067Z,89.00
2022-10-09T07:21:46.247Z,89.10
2022-10-09T07:24:14.732Z,89.60
2022-10-09T07:26:44.932Z,88.40
2022-10-09T07:29:14.804Z,89.20
2022-10-09T07:31:43.638Z,90.00
2022-10-09T07:34:11.112Z,90.10
2022-10-09T07:36:38.740Z,89.20
2022-10-09T07:39:06.670Z,90.40
2022-10-09T07:41:34.357Z,91.30
2022-10-09T07:44:02.035Z,89.70
2022-10-09T07:46:33.358Z,91.50
2022-10-09T07:49:02.361Z,90.20
2022-10-09T07:51:30.843Z,89.00
2022-10-09T07:54:03.276Z,88.50
2022-10-09T07:56:33.427Z,91.60
2022-10-09T07:59:03.917Z,89.10
2022-10-09T08:01:32.612Z,89.80
2022-10-09T08:04:01.394Z,88.80
2022-10-09T08:06:29.690Z,89.00
2022-10-09T08:08:59.247Z,87.90
2022-10-09T08:11:28.173Z,89.20
2022-10-09T08:13:56.098Z,88.60
2022-10-09T08:16:26.530Z,88.80
2022-10-09T08:18:58.653Z,89.80
2022-10-09T08:21:29.167Z,87.30
2022-10-09T08:23:58.633Z,91.80
2022-10-09T08:26:28.776Z,89.10
2022-10-09T08:29:00.058Z,89.30
2022-10-09T08:31:28.067Z,88.60
2022-10-09T08:33:57.799Z,88.50
2022-10-09T08:36:26.728Z,89.00
2022-10-09T08:38:55.289Z,89.40
2022-10-09T08:41:22.713Z,87.60
2022-10-09T08:43:54.993Z,90.30
2022-10-09T08:46:50.336Z,88.70
2022-10-09T08:49:27.859Z,89.80
2022-10-09T08:51:58.289Z,90.20
2022-10-09T08:54:34.162Z,88.10
2022-10-09T08:57:04.553Z,90.30
2022-10-09T08:59:32.125Z,89.20
2022-10-09T09:02:05.167Z,88.20
2022-10-09T09:04:50.004Z,89.90
2022-10-09T09:07:50.658Z,87.60
2022-10-09T09:10:37.356Z,87.60
2022-10-09T09:13:18.468Z,87.50
2022-10-09T09:16:06.894Z,87.50
2022-10-09T09:19:05.896Z,90.10
2022-10-09T09:21:54.240Z,87.40
2022-10-09T09:24:38.309Z,88.10
2022-10-09T09:27:14.210Z,86.50
2022-10-09T09:29:48.993Z,87.50
2022-10-09T09:32:21.701Z,87.30
2022-10-09T09:34:54.211Z,86.70
2022-10-09T09:37:23.439Z,87.00
2022-10-09T09:42:38.463Z,90.00
2022-10-09T09:45:12.467Z,86.30
2022-10-09T09:47:44.568Z,85.40
2022-10-09T09:50:28.607Z,85.70
2022-10-09T09:53:07.325Z,87.10
2022-10-09T09:55:37.429Z,86.00
2022-10-09T09:58:15.681Z,90.00
2022-10-09T10:01:01.562Z,86.80
2022-10-09T10:03:33.622Z,85.70
2022-10-09T10:06:02.800Z,86.90
2022-10-09T10:08:34.772Z,89.70
2022-10-09T10:11:08.448Z,90.00
2022-10-09T10:13:38.280Z,88.20
2022-10-09T10:16:09.430Z,84.30
2022-10-09T10:18:45.828Z,87.00
2022-10-09T10:21:20.314Z,88.30
2022-10-09T10:26:55.581Z,86.00
2022-10-09T10:29:43.884Z,82.50
2022-10-09T10:32:32.362Z,82.40
2022-10-09T10:35:04.841Z,82.00
2022-10-09T10:37:51.164Z,81.50
2022-10-09T10:40:42.040Z,81.40
2022-10-09T10:43:35.804Z,81.40
2022-10-09T10:46:38.547Z,81.00
2022-10-09T10:49:11.519Z,80.60
2022-10-09T10:51:59.965Z,80.50
2022-10-09T10:54:30.213Z,79.60
2022-10-09T10:57:31.394Z,79.60
2022-10-09T11:00:05.821Z,79.30
2022-10-09T11:02:57.621Z,79.40
2022-10-09T11:05:48.164Z,79.20
2022-10-09T11:08:40.085Z,78.40
2022-10-09T11:11:40.103Z,79.30
2022-10-09T11:14:34.728Z,77.50
2022-10-09T11:17:43.198Z,77.30
2022-10-09T11:20:40.092Z,76.90
2022-10-09T11:23:17.727Z,76.90
2022-10-09T11:26:08.996Z,78.40
2022-10-09T11:28:52.292Z,76.50
2022-10-09T11:31:27.644Z,76.90
2022-10-09T11:34:03.370Z,77.40
2022-10-09T11:36:45.018Z,79.60
2022-10-09T11:39:20.515Z,77.00
2022-10-09T11:41:49.134Z,76.50
2022-10-09T11:44:31.543Z,75.40
2022-10-09T11:47:34.474Z,75.00
2022-10-09T11:50:22.995Z,74.90
2022-10-09T11:53:14.313Z,74.30
2022-10-09T11:55:43.338Z,73.90
2022-10-09T11:58:21.540Z,74.10
2022-10-09T12:00:51.498Z,74.50
2022-10-09T12:03:39.630Z,74.00
2022-10-09T12:06:18.597Z,74.70
2022-10-09T12:09:01.928Z,72.40
2022-10-09T12:11:30.575Z,73.00
2022-10-09T12:14:05.493Z,72.50
2022-10-09T12:16:44.072Z,73.20
2022-10-09T12:19:20.463Z,71.20
2022-10-09T12:21:56.765Z,71.10
2022-10-09T12:24:27.970Z,70.70
2022-10-09T12:27:01.248Z,71.40
2022-10-09T12:29:44.455Z,71.10
2022-10-09T12:32:22.485Z,71.70
2022-10-09T12:34:51.168Z,70.10
2022-10-09T12:37:24.143Z,71.40
2022-10-09T12:39:54.458Z,71.60
2022-10-09T12:44:59.697Z,69.50
2022-10-09T12:47:34.302Z,72.50
2022-10-09T12:50:13.380Z,70.50
2022-10-09T12:52:57.542Z,71.10
2022-10-09T12:55:36.695Z,69.20
2022-10-09T12:58:41.408Z,70.70
2022-10-09T13:01:20.431Z,70.20
2022-10-09T13:04:11.295Z,71.00
2022-10-09T13:06:50.151Z,68.10
2022-10-09T13:09:20.013Z,68.80
2022-10-09T13:13:43.715Z,70.00
2022-10-09T13:19:22.412Z,69.30
2022-10-09T13:22:13.448Z,69.10
2022-10-09T13:24:41.424Z,71.50
2022-10-09T13:27:11.404Z,72.50
2022-10-09T13:29:46.471Z,70.00
2022-10-09T13:32:18.038Z,67.10
2022-10-09T13:34:46.506Z,68.50
2022-10-09T13:37:15.356Z,67.30
2022-10-09T13:39:50.175Z,68.00
2022-10-09T13:42:18.246Z,68.50
2022-10-09T13:44:59.192Z,70.60
2022-10-09T13:47:26.932Z,70.70
2022-10-09T13:49:59.021Z,71.00
2022-10-09T13:52:26.906Z,69.60
2022-10-09T13:55:05.790Z,72.10
2022-10-09T13:57:33.537Z,67.40
2022-10-09T14:00:06.093Z,70.40
2022-10-09T14:02:43.628Z,66.40
2022-10-09T14:05:22.222Z,69.60
2022-10-09T14:07:50.510Z,68.00
2022-10-09T14:10:23.029Z,69.20
2022-10-09T14:12:51.797Z,66.80
2022-10-09T14:15:19.610Z,65.10
2022-10-09T14:17:50.625Z,65.60
2022-10-09T14:20:18.481Z,65.60
2022-10-09T14:22:46.062Z,66.60
2022-10-09T14:25:13.757Z,66.40
2022-10-09T14:27:46.761Z,65.30
2022-10-09T14:30:14.398Z,66.50
2022-10-09T14:32:41.950Z,66.70
2022-10-09T14:35:13.114Z,66.50
2022-10-09T14:37:42.182Z,66.70
2022-10-09T14:40:13.741Z,65.40
2022-10-09T14:42:46.969Z,66.70
2022-10-09T14:45:14.811Z,70.70
2022-10-09T14:47:42.385Z,68.40
2022-10-09T14:50:10.651Z,65.00
2022-10-09T14:52:40.448Z,65.30
2022-10-09T14:55:08.311Z,64.20
2022-10-09T14:57:35.972Z,63.20
2022-10-09T15:00:05.868Z,68.00
2022-10-09T15:02:33.633Z,62.60
2022-10-09T15:05:01.192Z,65.20
2022-10-09T15:07:36.780Z,64.20
2022-10-09T15:10:12.280Z,64.90
2022-10-09T15:12:42.335Z,65.70
2022-10-09T15:15:13.017Z,65.80
2022-10-09T15:17:43.619Z,64.90
2022-10-09T15:20:18.139Z,64.90
2022-10-09T15:23:10.462Z,65.50
2022-10-09T15:25:40.682Z,64.60
2022-10-09T15:28:08.551Z,69.70
2022-10-09T15:30:38.827Z,68.80
2022-10-09T15:33:16.611Z,70.20
2022-10-09T15:35:50.316Z,63.30
2022-10-09T15:41:39.618Z,67.70
2022-10-09T15:44:29.707Z,66.20
2022-10-09T15:49:52.600Z,70.00
2022-10-09T15:53:07.320Z,70.90
2022-10-09T15:55:43.804Z,69.40
2022-10-09T15:58:12.648Z,67.90
2022-10-09T16:00:54.573Z,66.00
2022-10-09T16:03:47.533Z,67.90
2022-10-09T16:09:28.734Z,65.00
2022-10-09T16:11:58.214Z,71.10
2022-10-09T16:15:11.726Z,73.80
2022-10-09T16:17:44.809Z,65.60
2022-10-09T16:20:16.122Z,72.00
2022-10-09T16:26:03.198Z,67.90
2022-10-09T16:28:33.509Z,69.30
2022-10-09T16:31:13.592Z,67.30
2022-10-09T16:34:03.478Z,73.60
2022-10-09T16:36:33.507Z,66.60
2022-10-09T16:39:05.342Z,69.90
2022-10-09T16:41:39.640Z,73.10
2022-10-09T16:44:17.076Z,72.40
2022-10-09T16:46:44.767Z,68.70
2022-10-09T16:49:22.671Z,72.80
2022-10-09T16:51:55.086Z,68.40
2022-10-09T16:54:29.951Z,74.40
2022-10-09T16:56:59.354Z,69.70
2022-10-09T16:59:27.031Z,71.70
2022-10-09T17:01:57.680Z,72.20
2022-10-09T17:04:28.036Z,70.20
2022-10-09T17:07:07.846Z,69.70
2022-10-09T17:09:39.529Z,75.30
2022-10-09T17:12:17.330Z,72.60
2022-10-09T17:14:54.328Z,70.30
2022-10-09T17:17:35.052Z,74.70
2022-10-09T17:20:02.709Z,74.70
2022-10-09T17:22:32.721Z,71.00
2022-10-09T17:25:00.387Z,73.50
2022-10-09T17:27:30.279Z,74.40
2022-10-09T17:29:57.741Z,71.20
2022-10-09T17:32:29.206Z,70.70
2022-10-09T17:34:57.100Z,74.30
2022-10-09T17:37:32.270Z,75.10
2022-10-09T17:40:02.029Z,74.80
2022-10-09T17:42:29.749Z,74.90
2022-10-09T17:45:00.963Z,75.60
2022-10-09T17:47:28.860Z,73.50
2022-10-09T17:49:56.608Z,73.10
2022-10-09T17:52:54.406Z,76.50
2022-10-09T17:55:28.254Z,72.00
2022-10-09T17:57:58.595Z,75.20
2022-10-09T18:00:32.362Z,75.30
2022-10-09T18:03:04.600Z,76.40
2022-10-09T18:05:54.444Z,72.70
2022-10-09T18:08:33.321Z,70.20
2022-10-09T18:11:08.357Z,72.40
2022-10-09T18:13:45.727Z,69.80
2022-10-09T18:16:25.486Z,73.70
2022-10-09T18:18:53.341Z,70.50
2022-10-09T18:21:27.090Z,75.40
2022-10-09T18:24:14.221Z,72.60
2022-10-09T18:26:52.762Z,73.70
2022-10-09T18:29:23.818Z,78.00
2022-10-09T18:31:55.569Z,75.20
2022-10-09T18:34:25.700Z,74.80
2022-10-09T18:36:54.604Z,75.80
2022-10-09T18:39:23.484Z,74.40
2022-10-09T18:41:54.209Z,76.90
2022-10-09T18:44:28.617Z,74.40
2022-10-09T18:46:58.368Z,77.80
2022-10-09T18:49:30.386Z,72.50
2022-10-09T18:52:05.727Z,73.20
2022-10-09T18:54:36.238Z,74.10
2022-10-09T18:57:04.991Z,73.70
2022-10-09T18:59:37.101Z,73.50
2022-10-09T19:02:05.364Z,73.40
2022-10-09T19:04:34.221Z,77.10
2022-10-09T19:07:06.114Z,76.20
2022-10-09T19:09:37.788Z,73.40
2022-10-09T19:12:05.559Z,74.40
2022-10-09T19:14:34.737Z,77.30
2022-10-09T19:17:14.491Z,73.80
2022-10-09T19:19:49.380Z,77.90
2022-10-09T19:22:22.946Z,75.30
2022-10-09T19:24:56.562Z,79.20
2022-10-09T19:27:30.417Z,76.00
2022-10-09T19:32:39.798Z,78.00
2022-10-09T19:35:10.307Z,78.20
2022-10-09T19:37:44.337Z,78.00
2022-10-09T19:40:12.005Z,77.90
2022-10-09T19:42:41.011Z,76.90
2022-10-09T19:45:12.530Z,77.60
2022-10-09T19:47:42.305Z,78.90
2022-10-09T19:50:15.277Z,74.10
2022-10-09T19:52:47.739Z,80.90
2022-10-09T19:55:16.734Z,81.10
2022-10-09T19:57:44.592Z,78.90
2022-10-09T20:00:13.838Z,76.70
2022-10-09T20:02:42.553Z,75.90
2022-10-09T20:05:12.875Z,79.90
2022-10-09T20:07:43.320Z,81.20
2022-10-09T20:10:17.277Z,80.80
2022-10-09T20:12:53.475Z,76.60
2022-10-09T20:15:32.749Z,74.00
2022-10-09T20:18:00.422Z,79.40
2022-10-09T20:20:28.868Z,79.20
2022-10-09T20:22:56.556Z,80.80
2022-10-09T20:25:26.717Z,81.20
2022-10-09T20:27:58.231Z,75.00
2022-10-09T20:30:30.561Z,76.40
2022-10-09T20:33:01.192Z,79.30
2022-10-09T20:35:31.742Z,82.30
2022-10-09T20:38:00.712Z,82.80
2022-10-09T20:40:37.429Z,79.60
2022-10-09T20:43:05.189Z,77.80
2022-10-09T20:45:48.318Z,82.70
2022-10-09T20:48:22.112Z,84.80
2022-10-09T20:50:50.952Z,76.40
2022-10-09T20:53:24.012Z,79.80
2022-10-09T20:56:16.640Z,81.80
2022-10-09T20:58:47.278Z,78.30
2022-10-09T21:01:18.236Z,82.50
2022-10-09T21:03:47.184Z,81.10
2022-10-09T21:06:20.831Z,82.10
2022-10-09T21:08:48.660Z,77.20
2022-10-09T21:11:21.747Z,79.80
2022-10-09T21:13:50.334Z,77.90
2022-10-09T21:16:22.729Z,77.60
2022-10-09T21:19:05.278Z,78.40
2022-10-09T21:21:33.719Z,75.90
2022-10-09T21:24:01.774Z,75.30
2022-10-09T21:26:36.997Z,77.80
2022-10-09T21:29:05.534Z,78.70
2022-10-09T21:31:37.829Z,77.30
2022-10-09T21:34:05.596Z,82.00
2022-10-09T21:36:56.303Z,84.30
2022-10-09T21:39:34.177Z,77.70
2022-10-09T21:42:11.717Z,84.50
2022-10-09T21:44:39.387Z,81.20
2022-10-09T21:47:09.328Z,81.80
2022-10-09T21:49:39.377Z,76.10
2022-10-09T21:52:12.734Z,79.00
2022-10-09T21:54:40.301Z,78.50
2022-10-09T21:57:08.167Z,82.60
2022-10-09T21:59:37.119Z,81.00
2022-10-09T22:02:07.090Z,81.80
2022-10-09T22:04:35.976Z,81.20
2022-10-09T22:07:07.280Z,84.10
2022-10-09T22:09:34.857Z,82.00
2022-10-09T22:12:02.541Z,80.20
2022-10-09T22:14:31.368Z,83.10
2022-10-09T22:16:58.853Z,81.00
2022-10-09T22:19:26.437Z,83.60
2022-10-09T22:21:54.011Z,83.50
2022-10-09T22:24:24.776Z,82.00
2022-10-09T22:26:57.375Z,84.10
2022-10-09T22:29:28.145Z,82.40
2022-10-09T22:31:55.828Z,78.30
2022-10-09T22:34:23.415Z,79.30
2022-10-09T22:36:52.932Z,83.70
2022-10-09T22:39:25.051Z,79.50
2022-10-09T22:41:55.074Z,77.90
2022-10-09T22:44:22.781Z,81.20
2022-10-09T22:46:51.308Z,81.60
2022-10-09T22:49:20.960Z,80.80
2022-10-09T22:51:49.397Z,81.30
2022-10-09T22:54:19.303Z,81.00
2022-10-09T22:56:48.261Z,85.40
2022-10-09T22:59:19.752Z,84.20
2022-10-09T23:01:58.358Z,83.60
2022-10-09T23:04:27.454Z,77.50
2022-10-09T23:06:59.160Z,80.50
2022-10-09T23:09:33.946Z,80.70
2022-10-09T23:12:03.954Z,78.40
2022-10-09T23:14:31.526Z,84.10
2022-10-09T23:16:59.009Z,85.30
2022-10-09T23:19:27.413Z,84.50
2022-10-09T23:21:58.363Z,81.70
2022-10-09T23:24:26.481Z,81.10
2022-10-09T23:26:54.268Z,78.60
2022-10-09T23:29:21.846Z,83.30
2022-10-09T23:31:52.635Z,81.20
2022-10-09T23:34:22.356Z,79.40
2022-10-09T23:36:55.871Z,86.00
2022-10-09T23:39:25.835Z,83.60
2022-10-09T23:41:54.703Z,83.60
2022-10-09T23:44:22.480Z,83.50
2022-10-09T23:46:50.306Z,85.60
2022-10-09T23:49:18.044Z,83.30
2022-10-09T23:51:50.705Z,81.10
2022-10-09T23:54:18.279Z,80.10
2022-10-09T23:56:45.794Z,83.70
2022-10-09T23:59:15.400Z,83.20
